createdAt,value
2019-05-07T06:39:02.046Z,1.50
2019-05-07T06:41:49.016Z,1.90
2019-05-07T06:44:22.394Z,1.90
2019-05-07T06:46:52.634Z,1.80
2019-05-07T06:49:22.463Z,1.77
2019-05-07T06:51:52.823Z,1.60
2019-05-07T06:54:22.675Z,1.80
2019-05-07T06:56:52.607Z,1.90
2019-05-07T06:59:36.262Z,2.70
2019-05-07T07:02:13.855Z,1.70
2019-05-07T07:04:51.990Z,1.70
2019-05-07T07:07:46.447Z,1.80
2019-05-07T07:10:42.632Z,1.60
2019-05-07T07:13:12.059Z,2.00
2019-05-07T07:15:42.691Z,1.93
2019-05-07T07:18:12.350Z,1.80
2019-05-07T07:20:43.003Z,1.93
2019-05-07T07:23:12.487Z,2.03
2019-05-07T07:25:42.982Z,2.30
2019-05-07T07:28:12.519Z,2.20
2019-05-07T07:30:57.946Z,1.73
2019-05-07T07:33:31.984Z,2.10
2019-05-07T07:36:02.475Z,1.90
2019-05-07T07:38:35.691Z,1.70
2019-05-07T07:41:42.463Z,1.90
2019-05-07T07:44:13.214Z,1.83
2019-05-07T07:46:42.960Z,2.30
2019-05-07T07:49:15.149Z,2.00
2019-05-07T07:51:45.593Z,2.60
2019-05-07T07:54:14.583Z,2.60
2019-05-07T07:56:56.517Z,2.33
2019-05-07T07:59:35.056Z,1.70
2019-05-07T08:02:12.415Z,3.00
2019-05-07T08:04:42.586Z,2.30
2019-05-07T08:07:12.506Z,1.93
2019-05-07T08:09:42.787Z,2.27
2019-05-07T08:12:12.960Z,2.03
2019-05-07T08:14:42.867Z,1.80
2019-05-07T08:17:13.223Z,2.13
2019-05-07T08:19:43.038Z,2.30
2019-05-07T08:22:12.799Z,1.87
2019-05-07T08:24:42.900Z,2.43
2019-05-07T08:27:14.967Z,2.90
2019-05-07T08:29:43.436Z,2.37
2019-05-07T08:32:44.426Z,2.00
2019-05-07T08:35:29.935Z,3.30
2019-05-07T08:37:59.264Z,2.60
2019-05-07T08:40:28.608Z,2.67
2019-05-07T08:42:58.828Z,2.83
2019-05-07T08:45:46.212Z,3.10
2019-05-07T08:48:21.664Z,3.30
2019-05-07T08:50:52.528Z,3.30
2019-05-07T08:53:22.480Z,3.27
2019-05-07T08:55:52.664Z,3.90
2019-05-07T08:58:22.460Z,3.20
2019-05-07T09:00:52.389Z,4.00
2019-05-07T09:03:39.717Z,4.33
2019-05-07T09:06:09.048Z,3.10
2019-05-07T09:08:38.379Z,3.90
2019-05-07T09:11:07.717Z,3.13
2019-05-07T09:13:37.055Z,2.93
2019-05-07T09:16:06.395Z,2.47
2019-05-07T09:18:35.722Z,3.50
2019-05-07T09:21:05.090Z,3.53
2019-05-07T09:23:34.424Z,3.70
2019-05-07T09:26:03.921Z,3.60
2019-05-07T09:28:55.579Z,3.07
2019-05-07T09:31:32.226Z,2.83
2019-05-07T09:34:02.679Z,3.70
2019-05-07T09:36:38.295Z,3.00
2019-05-07T09:39:08.394Z,3.03
2019-05-07T09:41:37.732Z,3.40
2019-05-07T09:44:07.047Z,3.83
2019-05-07T09:46:36.375Z,4.10
2019-05-07T09:49:05.814Z,3.83
2019-05-07T09:51:35.140Z,3.90
2019-05-07T09:54:04.753Z,3.40
2019-05-07T09:56:34.089Z,4.10
2019-05-07T09:59:03.424Z,4.27
2019-05-07T10:01:32.846Z,3.93
2019-05-07T10:04:02.715Z,4.00
2019-05-07T10:06:32.227Z,4.90
2019-05-07T10:09:02.898Z,4.03
2019-05-07T10:11:47.245Z,4.77
2019-05-07T10:14:16.678Z,5.10
2019-05-07T10:17:14.160Z,5.10
2019-05-07T10:19:43.596Z,4.37
2019-05-07T10:22:12.925Z,4.50
2019-05-07T10:24:42.369Z,4.93
2019-05-07T10:27:12.676Z,5.47
2019-05-07T10:29:42.843Z,5.07
2019-05-07T10:32:12.824Z,5.57
2019-05-07T10:34:42.441Z,5.63
2019-05-07T10:37:12.137Z,5.17
2019-05-07T10:39:43.027Z,5.50
2019-05-07T10:42:12.502Z,6.33
2019-05-07T10:44:48.101Z,5.70
2019-05-07T10:47:42.373Z,5.73
2019-05-07T10:50:39.265Z,6.20
2019-05-07T10:53:08.891Z,5.83
2019-05-07T10:55:38.230Z,6.60
2019-05-07T10:58:07.572Z,6.70
2019-05-07T11:00:37.001Z,6.43
2019-05-07T11:03:06.387Z,5.87
2019-05-07T11:05:35.721Z,5.60
2019-05-07T11:08:05.042Z,5.90
2019-05-07T11:10:34.492Z,6.63
2019-05-07T11:13:04.140Z,6.93
2019-05-07T11:15:33.762Z,6.53
2019-05-07T11:18:09.785Z,7.50
2019-05-07T11:20:48.897Z,7.70
2019-05-07T11:23:10.676Z,7.63
2019-05-07T11:25:41.945Z,8.33
2019-05-07T11:28:12.321Z,9.17
2019-05-07T11:30:42.555Z,8.30
2019-05-07T11:33:12.765Z,8.77
2019-05-07T11:35:42.594Z,8.67
2019-05-07T11:38:20.742Z,9.53
2019-05-07T11:40:43.093Z,10.00
2019-05-07T11:43:32.621Z,9.13
2019-05-07T11:46:22.204Z,10.47
2019-05-07T11:49:18.570Z,10.87
2019-05-07T11:51:54.233Z,10.23
2019-05-07T11:54:23.873Z,11.50
2019-05-07T11:56:55.487Z,11.40
2019-05-07T11:59:24.669Z,10.87
2019-05-07T12:01:58.630Z,10.60
2019-05-07T12:04:28.206Z,11.13
2019-05-07T12:06:57.529Z,12.07
2019-05-07T12:09:27.291Z,11.20
2019-05-07T12:11:57.134Z,13.03
2019-05-07T12:14:31.564Z,10.87
2019-05-07T12:16:57.680Z,11.67
2019-05-07T12:19:27.042Z,12.27
2019-05-07T12:21:56.899Z,11.80
2019-05-07T12:24:26.247Z,11.97
2019-05-07T12:26:55.735Z,11.03
2019-05-07T12:29:25.230Z,10.53
2019-05-07T12:32:11.672Z,11.60
2019-05-07T12:34:54.142Z,11.43
2019-05-07T12:37:23.493Z,11.13
2019-05-07T12:39:52.883Z,13.10
2019-05-07T12:42:22.414Z,10.30
2019-05-07T12:44:51.883Z,12.30
2019-05-07T12:47:22.483Z,11.87
2019-05-07T12:49:52.300Z,11.27
2019-05-07T12:52:25.683Z,10.13
2019-05-07T12:54:58.813Z,10.37
2019-05-07T12:57:28.160Z,11.70
2019-05-07T13:00:01.966Z,11.10
2019-05-07T13:02:44.311Z,10.90
2019-05-07T13:05:13.357Z,10.90
2019-05-07T13:08:01.639Z,10.87
2019-05-07T13:10:32.505Z,11.13
2019-05-07T13:13:02.285Z,12.47
2019-05-07T13:15:32.624Z,11.47
2019-05-07T13:18:02.769Z,12.10
2019-05-07T13:20:32.299Z,12.70
2019-05-07T13:23:01.629Z,12.50
2019-05-07T13:25:32.382Z,12.87
2019-05-07T13:28:02.611Z,12.13
2019-05-07T13:30:32.264Z,14.07
2019-05-07T13:33:03.178Z,13.00
2019-05-07T13:35:33.060Z,14.33
2019-05-07T13:38:23.465Z,13.80
2019-05-07T13:41:12.967Z,11.97
2019-05-07T13:44:19.683Z,12.33
2019-05-07T13:46:53.012Z,12.67
2019-05-07T13:49:22.497Z,12.77
2019-05-07T13:52:02.857Z,14.63
2019-05-07T13:54:24.042Z,14.20
2019-05-07T13:56:53.408Z,15.00
2019-05-07T13:59:23.416Z,14.47
2019-05-07T14:02:08.330Z,14.07
2019-05-07T14:04:37.654Z,16.73
2019-05-07T14:07:07.039Z,16.70
2019-05-07T14:09:36.572Z,16.27
2019-05-07T14:12:06.113Z,17.53
2019-05-07T14:14:35.888Z,12.80
2019-05-07T14:17:05.450Z,14.67
2019-05-07T14:19:34.821Z,13.63
2019-05-07T14:22:15.270Z,14.60
2019-05-07T14:24:35.255Z,13.57
2019-05-07T14:27:04.689Z,13.57
2019-05-07T14:29:34.020Z,15.27
2019-05-07T14:32:22.286Z,14.03
2019-05-07T14:35:09.189Z,13.83
2019-05-07T14:37:42.292Z,15.13
2019-05-07T14:40:12.918Z,14.73
2019-05-07T14:42:46.793Z,15.70
2019-05-07T14:45:16.162Z,16.10
2019-05-07T14:47:45.517Z,15.67
2019-05-07T14:50:15.140Z,15.03
2019-05-07T14:52:44.584Z,17.53
2019-05-07T14:55:14.477Z,13.93
2019-05-07T14:57:43.822Z,16.07
2019-05-07T15:00:13.839Z,16.37
2019-05-07T15:02:43.206Z,15.47
2019-05-07T15:05:13.631Z,13.93
2019-05-07T15:07:42.995Z,12.67
2019-05-07T15:10:12.740Z,14.13
2019-05-07T15:12:43.910Z,13.93
2019-05-07T15:15:15.738Z,15.17
2019-05-07T15:17:53.809Z,16.23
2019-05-07T15:20:23.178Z,15.20
2019-05-07T15:23:11.988Z,15.90
2019-05-07T15:25:42.021Z,16.93
2019-05-07T15:28:12.250Z,17.73
2019-05-07T15:31:02.823Z,17.93
2019-05-07T15:33:32.329Z,17.37
2019-05-07T15:36:02.851Z,18.03
2019-05-07T15:38:32.513Z,18.90
2019-05-07T15:41:02.305Z,17.93
2019-05-07T15:43:32.492Z,16.60
2019-05-07T15:46:02.260Z,16.87
2019-05-07T15:48:32.665Z,18.73
2019-05-07T15:51:02.187Z,17.57
2019-05-07T15:53:39.788Z,16.90
2019-05-07T15:56:09.200Z,16.90
2019-05-07T15:58:39.223Z,15.87
2019-05-07T16:01:09.782Z,19.80
2019-05-07T16:03:42.861Z,18.40
2019-05-07T16:06:12.866Z,18.37
2019-05-07T16:08:54.217Z,16.63
2019-05-07T16:11:23.619Z,17.20
2019-05-07T16:14:27.360Z,18.07
2019-05-07T16:17:18.115Z,15.93
2019-05-07T16:19:47.476Z,17.37
2019-05-07T16:22:23.919Z,17.40
2019-05-07T16:24:53.258Z,17.00
2019-05-07T16:27:22.653Z,18.13
2019-05-07T16:29:52.636Z,17.20
2019-05-07T16:32:24.119Z,18.10
2019-05-07T16:34:53.133Z,17.90
2019-05-07T16:37:22.499Z,17.10
2019-05-07T16:39:52.687Z,15.50
2019-05-07T16:42:22.194Z,17.10
2019-05-07T16:44:52.294Z,17.97
2019-05-07T16:47:22.821Z,18.67
2019-05-07T16:49:52.292Z,17.80
2019-05-07T16:52:22.449Z,17.47
2019-05-07T16:54:52.747Z,18.23
2019-05-07T16:57:51.538Z,19.17
2019-05-07T17:00:26.599Z,24.27
2019-05-07T17:02:57.962Z,19.77
2019-05-07T17:05:27.370Z,22.40
2019-05-07T17:08:15.638Z,23.30
2019-05-07T17:10:45.487Z,25.87
2019-05-07T17:13:14.949Z,32.40
2019-05-07T17:15:56.450Z,19.57
2019-05-07T17:18:28.996Z,17.07
2019-05-07T17:20:59.207Z,16.50
2019-05-07T17:23:42.860Z,18.77
2019-05-07T17:25:59.949Z,18.13
2019-05-07T17:28:29.358Z,17.00
2019-05-07T17:30:59.372Z,19.33
2019-05-07T17:33:28.714Z,16.23
2019-05-07T17:35:58.195Z,17.40
2019-05-07T17:38:27.535Z,17.37
2019-05-07T17:41:13.580Z,17.20
2019-05-07T17:43:36.416Z,17.53
2019-05-07T17:46:05.809Z,18.07
2019-05-07T17:48:35.142Z,19.37
2019-05-07T17:51:23.414Z,17.10
2019-05-07T17:53:59.667Z,18.40
2019-05-07T17:56:25.012Z,16.87
2019-05-07T17:58:54.415Z,18.00
2019-05-07T18:01:32.767Z,16.77
2019-05-07T18:04:03.061Z,15.50
2019-05-07T18:06:32.566Z,17.53
2019-05-07T18:09:02.966Z,16.70
2019-05-07T18:11:33.098Z,17.33
2019-05-07T18:14:02.857Z,15.63
2019-05-07T18:17:02.958Z,15.57
2019-05-07T18:19:33.186Z,14.70
2019-05-07T18:22:02.928Z,14.47
2019-05-07T18:24:33.803Z,16.50
2019-05-07T18:27:05.163Z,15.50
2019-05-07T18:29:34.558Z,15.67
2019-05-07T18:32:04.665Z,15.87
2019-05-07T18:34:35.284Z,14.70
2019-05-07T18:37:04.661Z,15.30
2019-05-07T18:39:34.237Z,15.40
2019-05-07T18:42:03.659Z,15.07
2019-05-07T18:44:33.073Z,19.83
2019-05-07T18:47:02.601Z,14.10
2019-05-07T18:49:31.905Z,14.60
2019-05-07T18:52:03.586Z,13.40
2019-05-07T18:54:38.158Z,14.63
2019-05-07T18:57:07.632Z,13.40
2019-05-07T18:59:37.713Z,13.67
2019-05-07T19:02:07.629Z,14.13
2019-05-07T19:04:37.011Z,13.80
2019-05-07T19:07:06.429Z,13.63
2019-05-07T19:09:36.986Z,12.87
2019-05-07T19:12:08.371Z,12.90
2019-05-07T19:14:37.706Z,14.10
2019-05-07T19:17:07.179Z,13.33
2019-05-07T19:19:36.589Z,12.90
2019-05-07T19:22:07.134Z,13.47
2019-05-07T19:24:45.427Z,14.73
2019-05-07T19:27:07.999Z,13.93
2019-05-07T19:29:37.429Z,13.40
2019-05-07T19:32:09.482Z,12.33
2019-05-07T19:34:41.688Z,11.93
2019-05-07T19:37:10.451Z,13.77
2019-05-07T19:39:39.883Z,13.47
2019-05-07T19:42:09.228Z,12.97
2019-05-07T19:44:38.594Z,13.23
2019-05-07T19:47:07.943Z,13.20
2019-05-07T19:49:37.273Z,12.53
2019-05-07T19:52:06.947Z,12.83
2019-05-07T19:54:36.294Z,12.67
2019-05-07T19:57:05.992Z,14.33
2019-05-07T19:59:35.321Z,12.40
2019-05-07T20:02:06.485Z,13.50
2019-05-07T20:04:35.813Z,12.10
2019-05-07T20:07:07.174Z,11.73
2019-05-07T20:09:37.800Z,12.33
2019-05-07T20:12:08.091Z,12.20
2019-05-07T20:14:37.564Z,12.80
2019-05-07T20:17:07.081Z,12.13
2019-05-07T20:19:36.427Z,11.70
2019-05-07T20:22:05.763Z,12.90
2019-05-07T20:24:35.161Z,11.67
2019-05-07T20:27:04.939Z,12.30
2019-05-07T20:29:34.278Z,10.97
2019-05-07T20:32:03.600Z,11.43
2019-05-07T20:34:33.475Z,11.20
2019-05-07T20:37:02.897Z,11.43
2019-05-07T20:39:32.416Z,10.87
2019-05-07T20:42:03.052Z,11.23
2019-05-07T20:44:32.635Z,11.00
2019-05-07T20:47:01.978Z,10.70
2019-05-07T20:49:32.096Z,11.00
2019-05-07T20:52:01.569Z,10.77
2019-05-07T20:54:42.043Z,11.17
2019-05-07T20:57:33.521Z,11.07
2019-05-07T21:00:03.008Z,11.17
2019-05-07T21:02:44.374Z,11.03
2019-05-07T21:05:03.502Z,10.83
2019-05-07T21:07:32.900Z,10.97
2019-05-07T21:10:02.318Z,10.97
2019-05-07T21:12:33.230Z,10.03
2019-05-07T21:15:03.505Z,10.30
2019-05-07T21:17:33.032Z,10.37
2019-05-07T21:20:02.419Z,10.17
2019-05-07T21:22:32.030Z,9.77
2019-05-07T21:25:02.716Z,10.57
2019-05-07T21:27:32.223Z,10.33
2019-05-07T21:30:02.451Z,11.43
2019-05-07T21:32:32.494Z,10.67
2019-05-07T21:35:01.974Z,10.57
2019-05-07T21:37:32.352Z,10.90
2019-05-07T21:40:02.548Z,11.37
2019-05-07T21:42:32.189Z,11.40
2019-05-07T21:45:02.157Z,10.63
2019-05-07T21:47:32.690Z,11.33
2019-05-07T21:50:02.941Z,11.47
2019-05-07T21:52:34.726Z,11.43
2019-05-07T21:55:12.763Z,9.60
2019-05-07T21:57:54.637Z,10.23
2019-05-07T22:01:02.147Z,10.13
2019-05-07T22:03:32.426Z,10.53
2019-05-07T22:06:02.791Z,10.30
2019-05-07T22:08:32.674Z,10.10
2019-05-07T22:11:04.526Z,10.20
2019-05-07T22:13:33.275Z,10.00
2019-05-07T22:16:02.891Z,11.07
2019-05-07T22:18:33.961Z,10.50
2019-05-07T22:21:03.491Z,9.60
2019-05-07T22:23:32.768Z,10.80
2019-05-07T22:26:18.285Z,10.80
2019-05-07T22:28:34.616Z,10.77
2019-05-07T22:31:21.552Z,11.27
2019-05-07T22:33:59.384Z,10.47
2019-05-07T22:36:28.796Z,10.97
2019-05-07T22:38:58.137Z,11.30
2019-05-07T22:41:27.503Z,10.33
2019-05-07T22:43:56.856Z,10.50
2019-05-07T22:46:26.182Z,11.33
2019-05-07T22:48:55.523Z,11.07
2019-05-07T22:51:24.888Z,11.37
2019-05-07T22:53:54.250Z,10.10
2019-05-07T22:56:35.102Z,10.60
2019-05-07T22:58:56.774Z,10.63
2019-05-07T23:01:26.129Z,11.00
2019-05-07T23:03:55.453Z,9.77
2019-05-07T23:06:24.802Z,11.33
2019-05-07T23:08:54.593Z,10.37
2019-05-07T23:11:23.936Z,10.70
2019-05-07T23:13:54.735Z,11.80
2019-05-07T23:16:24.302Z,10.57
2019-05-07T23:18:53.646Z,11.67
2019-05-07T23:21:24.654Z,11.13
2019-05-07T23:23:54.130Z,10.93
2019-05-07T23:26:23.525Z,10.83
2019-05-07T23:28:52.881Z,10.67
2019-05-07T23:31:22.968Z,10.67
2019-05-07T23:33:52.505Z,10.37
2019-05-07T23:36:22.644Z,10.17
2019-05-07T23:38:52.296Z,10.53
2019-05-07T23:41:38.702Z,10.47
2019-05-07T23:44:16.742Z,10.27
2019-05-07T23:46:46.112Z,10.50
2019-05-07T23:49:15.444Z,9.93
2019-05-07T23:51:44.866Z,11.10
2019-05-07T23:54:14.222Z,10.10
2019-05-07T23:56:43.567Z,11.47
2019-05-07T23:59:14.978Z,10.20
